sensor_id;sensor_type;location;lat;lon;timestamp;P1;durP1;ratioP1;P2;durP2;ratioP2
30378;SDS011;17168;49.164;9.060;2023-09-30T00:00:48;1.80;;;0.43;;
30378;SDS011;17168;49.164;9.060;2023-09-30T00:03:20;1.90;;;1.73;;
30378;SDS011;17168;49.164;9.060;2023-09-30T00:05:53;3.00;;;1.40;;
30378;SDS011;17168;49.164;9.060;2023-09-30T00:08:25;3.67;;;0.68;;
30378;SDS011;17168;49.164;9.060;2023-09-30T00:10:58;2.97;;;0.95;;
30378;SDS011;17168;49.164;9.060;2023-09-30T00:13:33;2.58;;;0.63;;
30378;SDS011;17168;49.164;9.060;2023-09-30T00:16:06;3.85;;;0.98;;
30378;SDS011;17168;49.164;9.060;2023-09-30T00:18:38;3.83;;;1.38;;
30378;SDS011;17168;49.164;9.060;2023-09-30T00:21:11;4.18;;;1.27;;
30378;SDS011;17168;49.164;9.060;2023-09-30T00:23:44;4.63;;;1.77;;
30378;SDS011;17168;49.164;9.060;2023-09-30T00:26:16;3.40;;;1.58;;
30378;SDS011;17168;49.164;9.060;2023-09-30T00:28:51;3.65;;;0.95;;
30378;SDS011;17168;49.164;9.060;2023-09-30T00:31:23;2.63;;;1.15;;
30378;SDS011;17168;49.164;9.060;2023-09-30T00:33:55;3.90;;;2.10;;
30378;SDS011;17168;49.164;9.060;2023-09-30T00:36:28;2.70;;;0.90;;
30378;SDS011;17168;49.164;9.060;2023-09-30T00:39:00;4.72;;;1.23;;
30378;SDS011;17168;49.164;9.060;2023-09-30T00:41:33;3.42;;;2.03;;
30378;SDS011;17168;49.164;9.060;2023-09-30T00:44:08;4.22;;;2.13;;
30378;SDS011;17168;49.164;9.060;2023-09-30T00:46:40;3.70;;;1.85;;
30378;SDS011;17168;49.164;9.060;2023-09-30T00:49:14;4.82;;;1.60;;
30378;SDS011;17168;49.164;9.060;2023-09-30T00:51:46;3.28;;;1.58;;
30378;SDS011;17168;49.164;9.060;2023-09-30T00:54:19;4.05;;;1.77;;
30378;SDS011;17168;49.164;9.060;2023-09-30T00:56:53;4.07;;;1.80;;
30378;SDS011;17168;49.164;9.060;2023-09-30T00:59:34;4.40;;;1.77;;
30378;SDS011;17168;49.164;9.060;2023-09-30T01:02:06;4.13;;;1.60;;
30378;SDS011;17168;49.164;9.060;2023-09-30T01:04:38;3.55;;;1.45;;
30378;SDS011;17168;49.164;9.060;2023-09-30T01:07:12;3.15;;;1.40;;
30378;SDS011;17168;49.164;9.060;2023-09-30T01:09:44;3.35;;;1.70;;
30378;SDS011;17168;49.164;9.060;2023-09-30T01:12:17;3.95;;;2.10;;
30378;SDS011;17168;49.164;9.060;2023-09-30T01:14:56;5.88;;;2.25;;
30378;SDS011;17168;49.164;9.060;2023-09-30T01:17:29;4.72;;;1.55;;
30378;SDS011;17168;49.164;9.060;2023-09-30T01:20:01;5.10;;;1.73;;
30378;SDS011;17168;49.164;9.060;2023-09-30T01:22:41;4.80;;;1.73;;
30378;SDS011;17168;49.164;9.060;2023-09-30T01:25:13;6.32;;;1.52;;
30378;SDS011;17168;49.164;9.060;2023-09-30T01:27:46;7.93;;;2.75;;
30378;SDS011;17168;49.164;9.060;2023-09-30T01:30:19;6.18;;;1.80;;
30378;SDS011;17168;49.164;9.060;2023-09-30T01:32:53;6.63;;;1.73;;
30378;SDS011;17168;49.164;9.060;2023-09-30T01:35:26;4.22;;;2.72;;
30378;SDS011;17168;49.164;9.060;2023-09-30T01:38:01;4.80;;;2.97;;
30378;SDS011;17168;49.164;9.060;2023-09-30T01:40:33;5.80;;;2.47;;
30378;SDS011;17168;49.164;9.060;2023-09-30T01:43:06;3.70;;;1.75;;
30378;SDS011;17168;49.164;9.060;2023-09-30T01:45:38;5.70;;;2.13;;
30378;SDS011;17168;49.164;9.060;2023-09-30T01:48:10;6.63;;;2.47;;
30378;SDS011;17168;49.164;9.060;2023-09-30T01:50:43;6.55;;;3.10;;
30378;SDS011;17168;49.164;9.060;2023-09-30T01:53:18;6.20;;;2.83;;
30378;SDS011;17168;49.164;9.060;2023-09-30T01:55:50;4.65;;;2.33;;
30378;SDS011;17168;49.164;9.060;2023-09-30T01:58:22;6.40;;;2.80;;
30378;SDS011;17168;49.164;9.060;2023-09-30T02:01:01;4.68;;;2.30;;
30378;SDS011;17168;49.164;9.060;2023-09-30T02:03:34;4.22;;;2.28;;
30378;SDS011;17168;49.164;9.060;2023-09-30T02:06:09;4.80;;;2.25;;
30378;SDS011;17168;49.164;9.060;2023-09-30T02:08:44;5.15;;;1.52;;
30378;SDS011;17168;49.164;9.060;2023-09-30T02:11:17;5.30;;;2.25;;
30378;SDS011;17168;49.164;9.060;2023-09-30T02:13:49;3.38;;;2.45;;
30378;SDS011;17168;49.164;9.060;2023-09-30T02:16:21;5.55;;;2.47;;
30378;SDS011;17168;49.164;9.060;2023-09-30T02:18:54;5.45;;;3.15;;
30378;SDS011;17168;49.164;9.060;2023-09-30T02:21:29;5.38;;;2.50;;
30378;SDS011;17168;49.164;9.060;2023-09-30T02:24:05;5.38;;;2.75;;
30378;SDS011;17168;49.164;9.060;2023-09-30T02:26:38;3.20;;;2.15;;
30378;SDS011;17168;49.164;9.060;2023-09-30T02:29:10;4.32;;;2.28;;
30378;SDS011;17168;49.164;9.060;2023-09-30T02:31:42;5.97;;;3.08;;
30378;SDS011;17168;49.164;9.060;2023-09-30T02:34:15;5.50;;;2.95;;
30378;SDS011;17168;49.164;9.060;2023-09-30T02:36:47;6.68;;;3.22;;
30378;SDS011;17168;49.164;9.060;2023-09-30T02:39:22;5.53;;;2.20;;
30378;SDS011;17168;49.164;9.060;2023-09-30T02:41:55;4.13;;;3.50;;
30378;SDS011;17168;49.164;9.060;2023-09-30T02:44:27;4.78;;;1.83;;
30378;SDS011;17168;49.164;9.060;2023-09-30T02:46:59;5.43;;;1.95;;
30378;SDS011;17168;49.164;9.060;2023-09-30T02:49:32;5.82;;;2.95;;
30378;SDS011;17168;49.164;9.060;2023-09-30T02:52:04;4.95;;;2.78;;
30378;SDS011;17168;49.164;9.060;2023-09-30T02:54:39;4.22;;;2.50;;
30378;SDS011;17168;49.164;9.060;2023-09-30T02:57:11;7.22;;;3.28;;
30378;SDS011;17168;49.164;9.060;2023-09-30T02:59:44;5.80;;;2.65;;
30378;SDS011;17168;49.164;9.060;2023-09-30T03:02:16;4.70;;;2.47;;
30378;SDS011;17168;49.164;9.060;2023-09-30T03:04:49;4.95;;;4.40;;
30378;SDS011;17168;49.164;9.060;2023-09-30T03:07:22;7.03;;;2.33;;
30378;SDS011;17168;49.164;9.060;2023-09-30T03:09:57;6.30;;;2.67;;
30378;SDS011;17168;49.164;9.060;2023-09-30T03:12:30;7.75;;;2.80;;
30378;SDS011;17168;49.164;9.060;2023-09-30T03:15:03;4.93;;;2.92;;
30378;SDS011;17168;49.164;9.060;2023-09-30T03:17:36;6.32;;;3.17;;
30378;SDS011;17168;49.164;9.060;2023-09-30T03:20:09;6.35;;;2.25;;
30378;SDS011;17168;49.164;9.060;2023-09-30T03:22:50;4.03;;;1.73;;
30378;SDS011;17168;49.164;9.060;2023-09-30T03:25:25;5.80;;;2.53;;
30378;SDS011;17168;49.164;9.060;2023-09-30T03:27:58;4.40;;;3.28;;
30378;SDS011;17168;49.164;9.060;2023-09-30T03:30:30;5.20;;;2.20;;
30378;SDS011;17168;49.164;9.060;2023-09-30T03:33:03;5.45;;;3.47;;
30378;SDS011;17168;49.164;9.060;2023-09-30T03:35:36;3.88;;;2.70;;
30378;SDS011;17168;49.164;9.060;2023-09-30T03:38:08;6.13;;;3.70;;
30378;SDS011;17168;49.164;9.060;2023-09-30T03:40:47;5.00;;;2.40;;
30378;SDS011;17168;49.164;9.060;2023-09-30T03:43:20;5.78;;;3.15;;
30378;SDS011;17168;49.164;9.060;2023-09-30T03:45:54;3.78;;;2.28;;
30378;SDS011;17168;49.164;9.060;2023-09-30T03:48:28;6.80;;;3.17;;
30378;SDS011;17168;49.164;9.060;2023-09-30T03:51:07;5.55;;;3.15;;
30378;SDS011;17168;49.164;9.060;2023-09-30T03:53:40;6.28;;;3.00;;
30378;SDS011;17168;49.164;9.060;2023-09-30T03:56:14;4.07;;;2.28;;
30378;SDS011;17168;49.164;9.060;2023-09-30T03:58:47;4.75;;;2.53;;
30378;SDS011;17168;49.164;9.060;2023-09-30T04:01:20;7.90;;;2.50;;
30378;SDS011;17168;49.164;9.060;2023-09-30T04:03:52;4.93;;;2.42;;
30378;SDS011;17168;49.164;9.060;2023-09-30T04:06:28;4.63;;;2.47;;
30378;SDS011;17168;49.164;9.060;2023-09-30T04:09:00;5.10;;;2.22;;
30378;SDS011;17168;49.164;9.060;2023-09-30T04:11:36;4.88;;;3.08;;
30378;SDS011;17168;49.164;9.060;2023-09-30T04:14:08;5.60;;;2.30;;
30378;SDS011;17168;49.164;9.060;2023-09-30T04:16:41;4.75;;;2.70;;
30378;SDS011;17168;49.164;9.060;2023-09-30T04:19:13;5.28;;;2.50;;
30378;SDS011;17168;49.164;9.060;2023-09-30T04:21:45;7.60;;;2.60;;
30378;SDS011;17168;49.164;9.060;2023-09-30T04:24:18;6.05;;;3.08;;
30378;SDS011;17168;49.164;9.060;2023-09-30T04:26:54;6.45;;;3.58;;
30378;SDS011;17168;49.164;9.060;2023-09-30T04:32:01;7.13;;;2.92;;
30378;SDS011;17168;49.164;9.060;2023-09-30T04:34:33;5.75;;;3.13;;
30378;SDS011;17168;49.164;9.060;2023-09-30T04:37:05;5.43;;;3.28;;
30378;SDS011;17168;49.164;9.060;2023-09-30T04:39:40;5.55;;;2.90;;
30378;SDS011;17168;49.164;9.060;2023-09-30T04:42:15;8.85;;;3.72;;
30378;SDS011;17168;49.164;9.060;2023-09-30T04:44:51;5.97;;;2.70;;
30378;SDS011;17168;49.164;9.060;2023-09-30T04:47:23;6.03;;;3.08;;
30378;SDS011;17168;49.164;9.060;2023-09-30T04:49:56;6.55;;;2.88;;
30378;SDS011;17168;49.164;9.060;2023-09-30T04:52:29;6.45;;;2.65;;
30378;SDS011;17168;49.164;9.060;2023-09-30T04:55:02;5.90;;;3.33;;
30378;SDS011;17168;49.164;9.060;2023-09-30T04:57:38;6.18;;;3.80;;
30378;SDS011;17168;49.164;9.060;2023-09-30T05:00:14;5.80;;;2.55;;
30378;SDS011;17168;49.164;9.060;2023-09-30T05:02:49;5.15;;;3.22;;
30378;SDS011;17168;49.164;9.060;2023-09-30T05:05:21;5.70;;;2.65;;
30378;SDS011;17168;49.164;9.060;2023-09-30T05:07:53;5.95;;;4.40;;
30378;SDS011;17168;49.164;9.060;2023-09-30T05:10:26;8.23;;;4.47;;
30378;SDS011;17168;49.164;9.060;2023-09-30T05:13:01;9.55;;;3.97;;
30378;SDS011;17168;49.164;9.060;2023-09-30T05:15:34;9.15;;;4.43;;
30378;SDS011;17168;49.164;9.060;2023-09-30T05:18:07;6.85;;;2.90;;
30378;SDS011;17168;49.164;9.060;2023-09-30T05:20:41;5.75;;;3.28;;
30378;SDS011;17168;49.164;9.060;2023-09-30T05:23:16;6.35;;;3.08;;
30378;SDS011;17168;49.164;9.060;2023-09-30T05:25:50;7.07;;;3.38;;
30378;SDS011;17168;49.164;9.060;2023-09-30T05:28:25;8.07;;;3.58;;
30378;SDS011;17168;49.164;9.060;2023-09-30T05:30:58;6.10;;;3.47;;
30378;SDS011;17168;49.164;9.060;2023-09-30T05:33:31;4.57;;;2.60;;
30378;SDS011;17168;49.164;9.060;2023-09-30T05:36:04;4.72;;;3.50;;
30378;SDS011;17168;49.164;9.060;2023-09-30T05:38:36;5.13;;;3.20;;
30378;SDS011;17168;49.164;9.060;2023-09-30T05:41:08;5.18;;;3.08;;
30378;SDS011;17168;49.164;9.060;2023-09-30T05:43:43;6.63;;;3.10;;
30378;SDS011;17168;49.164;9.060;2023-09-30T05:46:15;8.02;;;3.08;;
30378;SDS011;17168;49.164;9.060;2023-09-30T05:48:48;5.72;;;2.85;;
30378;SDS011;17168;49.164;9.060;2023-09-30T05:51:20;6.93;;;3.63;;
30378;SDS011;17168;49.164;9.060;2023-09-30T05:53:52;5.07;;;3.03;;
30378;SDS011;17168;49.164;9.060;2023-09-30T05:56:26;9.25;;;3.50;;
30378;SDS011;17168;49.164;9.060;2023-09-30T05:59:01;5.47;;;3.35;;
30378;SDS011;17168;49.164;9.060;2023-09-30T06:01:33;7.70;;;3.25;;
30378;SDS011;17168;49.164;9.060;2023-09-30T06:04:07;8.18;;;3.22;;
30378;SDS011;17168;49.164;9.060;2023-09-30T06:06:39;5.53;;;2.65;;
30378;SDS011;17168;49.164;9.060;2023-09-30T06:09:17;7.40;;;3.40;;
30378;SDS011;17168;49.164;9.060;2023-09-30T06:11:49;8.52;;;3.90;;
30378;SDS011;17168;49.164;9.060;2023-09-30T06:14:24;8.43;;;4.40;;
30378;SDS011;17168;49.164;9.060;2023-09-30T06:16:59;7.13;;;3.30;;
30378;SDS011;17168;49.164;9.060;2023-09-30T06:19:31;5.38;;;3.25;;
30378;SDS011;17168;49.164;9.060;2023-09-30T06:22:04;9.07;;;3.70;;
30378;SDS011;17168;49.164;9.060;2023-09-30T06:24:36;6.65;;;3.33;;
30378;SDS011;17168;49.164;9.060;2023-09-30T06:27:08;9.10;;;3.78;;
30378;SDS011;17168;49.164;9.060;2023-09-30T06:29:47;8.48;;;3.58;;
30378;SDS011;17168;49.164;9.060;2023-09-30T06:32:19;6.43;;;3.78;;
30378;SDS011;17168;49.164;9.060;2023-09-30T06:34:51;9.18;;;4.15;;
30378;SDS011;17168;49.164;9.060;2023-09-30T06:37:24;8.27;;;4.85;;
30378;SDS011;17168;49.164;9.060;2023-09-30T06:39:58;9.05;;;4.40;;
30378;SDS011;17168;49.164;9.060;2023-09-30T06:42:32;11.60;;;5.35;;
30378;SDS011;17168;49.164;9.060;2023-09-30T06:45:07;6.97;;;3.58;;
30378;SDS011;17168;49.164;9.060;2023-09-30T06:47:41;7.55;;;4.07;;
30378;SDS011;17168;49.164;9.060;2023-09-30T06:50:14;10.88;;;4.85;;
30378;SDS011;17168;49.164;9.060;2023-09-30T06:52:48;11.35;;;5.20;;
30378;SDS011;17168;49.164;9.060;2023-09-30T06:55:21;12.32;;;7.07;;
30378;SDS011;17168;49.164;9.060;2023-09-30T06:57:54;7.10;;;4.38;;
30378;SDS011;17168;49.164;9.060;2023-09-30T07:00:29;9.45;;;5.10;;
30378;SDS011;17168;49.164;9.060;2023-09-30T07:03:01;10.20;;;6.88;;
30378;SDS011;17168;49.164;9.060;2023-09-30T07:05:35;8.40;;;5.40;;
30378;SDS011;17168;49.164;9.060;2023-09-30T07:08:08;9.75;;;5.10;;
30378;SDS011;17168;49.164;9.060;2023-09-30T07:10:40;12.00;;;4.43;;
30378;SDS011;17168;49.164;9.060;2023-09-30T07:13:13;11.23;;;5.80;;
30378;SDS011;17168;49.164;9.060;2023-09-30T07:15:48;9.48;;;5.30;;
30378;SDS011;17168;49.164;9.060;2023-09-30T07:18:21;13.52;;;4.72;;
30378;SDS011;17168;49.164;9.060;2023-09-30T07:20:53;11.07;;;5.43;;
30378;SDS011;17168;49.164;9.060;2023-09-30T07:23:25;13.68;;;5.47;;
30378;SDS011;17168;49.164;9.060;2023-09-30T07:26:01;8.73;;;4.40;;
30378;SDS011;17168;49.164;9.060;2023-09-30T07:28:33;13.32;;;6.13;;
30378;SDS011;17168;49.164;9.060;2023-09-30T07:31:08;11.43;;;6.18;;
30378;SDS011;17168;49.164;9.060;2023-09-30T07:33:40;8.90;;;4.68;;
30378;SDS011;17168;49.164;9.060;2023-09-30T07:36:13;9.70;;;4.55;;
30378;SDS011;17168;49.164;9.060;2023-09-30T07:38:46;11.32;;;5.03;;
30378;SDS011;17168;49.164;9.060;2023-09-30T07:41:18;9.48;;;4.55;;
30378;SDS011;17168;49.164;9.060;2023-09-30T07:43:50;11.93;;;6.05;;
30378;SDS011;17168;49.164;9.060;2023-09-30T07:46:25;6.85;;;4.25;;
30378;SDS011;17168;49.164;9.060;2023-09-30T07:48:58;10.40;;;4.75;;
30378;SDS011;17168;49.164;9.060;2023-09-30T07:51:31;8.25;;;4.82;;
30378;SDS011;17168;49.164;9.060;2023-09-30T07:54:03;10.70;;;4.82;;
30378;SDS011;17168;49.164;9.060;2023-09-30T07:56:56;13.10;;;6.07;;
30378;SDS011;17168;49.164;9.060;2023-09-30T07:59:29;9.55;;;5.13;;
30378;SDS011;17168;49.164;9.060;2023-09-30T08:02:04;10.13;;;5.80;;
30378;SDS011;17168;49.164;9.060;2023-09-30T08:04:38;9.13;;;4.60;;
30378;SDS011;17168;49.164;9.060;2023-09-30T08:07:10;7.78;;;4.57;;
30378;SDS011;17168;49.164;9.060;2023-09-30T08:09:42;7.60;;;4.32;;
30378;SDS011;17168;49.164;9.060;2023-09-30T08:12:15;9.57;;;3.80;;
30378;SDS011;17168;49.164;9.060;2023-09-30T08:14:47;9.40;;;4.85;;
30378;SDS011;17168;49.164;9.060;2023-09-30T08:17:22;9.48;;;4.43;;
30378;SDS011;17168;49.164;9.060;2023-09-30T08:19:55;8.73;;;4.68;;
30378;SDS011;17168;49.164;9.060;2023-09-30T08:22:27;7.03;;;4.43;;
30378;SDS011;17168;49.164;9.060;2023-09-30T08:24:59;10.57;;;4.75;;
30378;SDS011;17168;49.164;9.060;2023-09-30T08:27:32;8.27;;;4.35;;
30378;SDS011;17168;49.164;9.060;2023-09-30T08:30:05;6.95;;;3.53;;
30378;SDS011;17168;49.164;9.060;2023-09-30T08:32:41;12.82;;;2.78;;
30378;SDS011;17168;49.164;9.060;2023-09-30T08:35:13;5.75;;;3.35;;
30378;SDS011;17168;49.164;9.060;2023-09-30T08:37:46;8.02;;;2.25;;
30378;SDS011;17168;49.164;9.060;2023-09-30T08:40:19;4.78;;;2.60;;
30378;SDS011;17168;49.164;9.060;2023-09-30T08:42:52;6.90;;;2.85;;
30378;SDS011;17168;49.164;9.060;2023-09-30T08:45:25;6.00;;;2.85;;
30378;SDS011;17168;49.164;9.060;2023-09-30T08:48:04;9.25;;;3.17;;
30378;SDS011;17168;49.164;9.060;2023-09-30T08:50:37;5.95;;;2.88;;
30378;SDS011;17168;49.164;9.060;2023-09-30T08:53:12;13.18;;;3.47;;
30378;SDS011;17168;49.164;9.060;2023-09-30T08:55:47;7.35;;;2.30;;
30378;SDS011;17168;49.164;9.060;2023-09-30T08:58:24;5.40;;;2.08;;
30378;SDS011;17168;49.164;9.060;2023-09-30T09:00:58;8.38;;;2.78;;
30378;SDS011;17168;49.164;9.060;2023-09-30T09:03:33;5.28;;;3.58;;
30378;SDS011;17168;49.164;9.060;2023-09-30T09:06:07;4.90;;;2.20;;
30378;SDS011;17168;49.164;9.060;2023-09-30T09:08:40;6.70;;;2.47;;
30378;SDS011;17168;49.164;9.060;2023-09-30T09:11:12;8.38;;;3.70;;
30378;SDS011;17168;49.164;9.060;2023-09-30T09:13:46;5.07;;;3.20;;
30378;SDS011;17168;49.164;9.060;2023-09-30T09:16:21;6.60;;;2.38;;
30378;SDS011;17168;49.164;9.060;2023-09-30T09:18:58;8.70;;;3.38;;
30378;SDS011;17168;49.164;9.060;2023-09-30T09:21:30;7.38;;;3.17;;
30378;SDS011;17168;49.164;9.060;2023-09-30T09:24:03;6.13;;;2.55;;
30378;SDS011;17168;49.164;9.060;2023-09-30T09:26:35;5.07;;;2.70;;
30378;SDS011;17168;49.164;9.060;2023-09-30T09:29:09;9.25;;;2.63;;
30378;SDS011;17168;49.164;9.060;2023-09-30T09:31:42;5.85;;;2.50;;
30378;SDS011;17168;49.164;9.060;2023-09-30T09:34:16;6.20;;;3.20;;
30378;SDS011;17168;49.164;9.060;2023-09-30T09:36:49;5.38;;;3.33;;
30378;SDS011;17168;49.164;9.060;2023-09-30T09:39:26;9.07;;;2.22;;
30378;SDS011;17168;49.164;9.060;2023-09-30T09:42:02;4.70;;;2.47;;
30378;SDS011;17168;49.164;9.060;2023-09-30T09:44:35;6.00;;;2.35;;
30378;SDS011;17168;49.164;9.060;2023-09-30T09:47:09;3.25;;;2.72;;
30378;SDS011;17168;49.164;9.060;2023-09-30T09:49:44;4.53;;;2.67;;
30378;SDS011;17168;49.164;9.060;2023-09-30T09:52:16;5.18;;;3.00;;
30378;SDS011;17168;49.164;9.060;2023-09-30T09:54:51;5.90;;;2.95;;
30378;SDS011;17168;49.164;9.060;2023-09-30T09:57:23;5.07;;;2.83;;
30378;SDS011;17168;49.164;9.060;2023-09-30T09:59:57;4.95;;;1.92;;
30378;SDS011;17168;49.164;9.060;2023-09-30T10:02:31;5.97;;;2.95;;
30378;SDS011;17168;49.164;9.060;2023-09-30T10:05:07;6.50;;;2.67;;
30378;SDS011;17168;49.164;9.060;2023-09-30T10:07:42;4.15;;;2.47;;
30378;SDS011;17168;49.164;9.060;2023-09-30T10:10:19;6.82;;;2.63;;
30378;SDS011;17168;49.164;9.060;2023-09-30T10:12:52;5.45;;;2.17;;
30378;SDS011;17168;49.164;9.060;2023-09-30T10:15:39;6.03;;;1.75;;
30378;SDS011;17168;49.164;9.060;2023-09-30T10:18:12;5.35;;;1.58;;
30378;SDS011;17168;49.164;9.060;2023-09-30T10:20:49;6.03;;;2.42;;
30378;SDS011;17168;49.164;9.060;2023-09-30T10:23:25;5.10;;;2.20;;
30378;SDS011;17168;49.164;9.060;2023-09-30T10:26:13;8.05;;;3.08;;
30378;SDS011;17168;49.164;9.060;2023-09-30T10:28:47;2.85;;;2.53;;
30378;SDS011;17168;49.164;9.060;2023-09-30T10:31:22;5.45;;;2.00;;
30378;SDS011;17168;49.164;9.060;2023-09-30T10:36:57;5.43;;;2.40;;
30378;SDS011;17168;49.164;9.060;2023-09-30T10:51:14;5.82;;;2.00;;
30378;SDS011;17168;49.164;9.060;2023-09-30T10:53:50;5.68;;;2.20;;
30378;SDS011;17168;49.164;9.060;2023-09-30T10:56:26;6.35;;;1.70;;
30378;SDS011;17168;49.164;9.060;2023-09-30T10:59:04;7.10;;;2.63;;
30378;SDS011;17168;49.164;9.060;2023-09-30T11:01:36;5.13;;;1.73;;
30378;SDS011;17168;49.164;9.060;2023-09-30T11:04:09;6.60;;;1.65;;
30378;SDS011;17168;49.164;9.060;2023-09-30T11:06:42;5.72;;;2.63;;
30378;SDS011;17168;49.164;9.060;2023-09-30T11:09:17;6.00;;;2.50;;
30378;SDS011;17168;49.164;9.060;2023-09-30T11:11:51;5.25;;;1.70;;
30378;SDS011;17168;49.164;9.060;2023-09-30T11:14:26;8.65;;;2.03;;
30378;SDS011;17168;49.164;9.060;2023-09-30T11:17:01;5.07;;;2.67;;
30378;SDS011;17168;49.164;9.060;2023-09-30T11:19:35;4.80;;;1.33;;
30378;SDS011;17168;49.164;9.060;2023-09-30T11:22:09;5.80;;;1.50;;
30378;SDS011;17168;49.164;9.060;2023-09-30T11:24:44;7.18;;;2.47;;
30378;SDS011;17168;49.164;9.060;2023-09-30T11:27:22;4.05;;;1.45;;
30378;SDS011;17168;49.164;9.060;2023-09-30T11:29:56;5.30;;;2.00;;
30378;SDS011;17168;49.164;9.060;2023-09-30T11:32:30;7.60;;;2.00;;
30378;SDS011;17168;49.164;9.060;2023-09-30T11:35:08;5.93;;;1.98;;
30378;SDS011;17168;49.164;9.060;2023-09-30T11:37:41;7.63;;;3.13;;
30378;SDS011;17168;49.164;9.060;2023-09-30T11:40:19;5.97;;;2.17;;
30378;SDS011;17168;49.164;9.060;2023-09-30T11:43:06;6.25;;;2.60;;
30378;SDS011;17168;49.164;9.060;2023-09-30T11:45:39;5.90;;;2.45;;
30378;SDS011;17168;49.164;9.060;2023-09-30T11:48:20;8.35;;;2.45;;
30378;SDS011;17168;49.164;9.060;2023-09-30T11:50:52;6.90;;;2.53;;
30378;SDS011;17168;49.164;9.060;2023-09-30T11:53:26;7.40;;;2.70;;
30378;SDS011;17168;49.164;9.060;2023-09-30T11:56:02;4.30;;;2.47;;
30378;SDS011;17168;49.164;9.060;2023-09-30T11:58:34;5.47;;;2.33;;
30378;SDS011;17168;49.164;9.060;2023-09-30T12:01:07;6.55;;;2.50;;
30378;SDS011;17168;49.164;9.060;2023-09-30T12:03:41;6.50;;;2.13;;
30378;SDS011;17168;49.164;9.060;2023-09-30T12:06:14;6.65;;;2.17;;
30378;SDS011;17168;49.164;9.060;2023-09-30T12:08:47;6.53;;;2.40;;
30378;SDS011;17168;49.164;9.060;2023-09-30T12:11:22;6.82;;;2.17;;
30378;SDS011;17168;49.164;9.060;2023-09-30T12:13:55;6.15;;;3.20;;
30378;SDS011;17168;49.164;9.060;2023-09-30T12:16:28;6.78;;;2.47;;
30378;SDS011;17168;49.164;9.060;2023-09-30T12:19:00;8.45;;;2.47;;
30378;SDS011;17168;49.164;9.060;2023-09-30T12:21:35;9.60;;;3.28;;
30378;SDS011;17168;49.164;9.060;2023-09-30T12:24:12;6.68;;;2.55;;
30378;SDS011;17168;49.164;9.060;2023-09-30T12:26:53;5.97;;;2.50;;
30378;SDS011;17168;49.164;9.060;2023-09-30T12:29:26;6.55;;;3.22;;
30378;SDS011;17168;49.164;9.060;2023-09-30T12:32:00;7.47;;;3.17;;
30378;SDS011;17168;49.164;9.060;2023-09-30T12:34:33;9.32;;;3.72;;
30378;SDS011;17168;49.164;9.060;2023-09-30T12:37:08;9.82;;;4.07;;
30378;SDS011;17168;49.164;9.060;2023-09-30T12:39:40;11.25;;;3.78;;
30378;SDS011;17168;49.164;9.060;2023-09-30T12:42:15;10.38;;;4.55;;
30378;SDS011;17168;49.164;9.060;2023-09-30T12:44:47;8.20;;;3.53;;
30378;SDS011;17168;49.164;9.060;2023-09-30T12:47:20;6.10;;;2.17;;
30378;SDS011;17168;49.164;9.060;2023-09-30T12:49:52;7.47;;;3.50;;
30378;SDS011;17168;49.164;9.060;2023-09-30T12:52:25;6.18;;;2.80;;
30378;SDS011;17168;49.164;9.060;2023-09-30T12:54:59;8.27;;;3.20;;
30378;SDS011;17168;49.164;9.060;2023-09-30T12:57:34;6.13;;;2.88;;
30378;SDS011;17168;49.164;9.060;2023-09-30T13:00:11;7.40;;;3.17;;
30378;SDS011;17168;49.164;9.060;2023-09-30T13:02:44;11.35;;;2.75;;
30378;SDS011;17168;49.164;9.060;2023-09-30T13:05:16;7.45;;;3.40;;
30378;SDS011;17168;49.164;9.060;2023-09-30T13:07:49;7.22;;;2.90;;
30378;SDS011;17168;49.164;9.060;2023-09-30T13:10:21;7.90;;;3.50;;
30378;SDS011;17168;49.164;9.060;2023-09-30T13:12:56;7.38;;;3.22;;
30378;SDS011;17168;49.164;9.060;2023-09-30T13:15:29;8.10;;;2.85;;
30378;SDS011;17168;49.164;9.060;2023-09-30T13:18:01;10.07;;;3.90;;
30378;SDS011;17168;49.164;9.060;2023-09-30T13:20:35;7.15;;;3.28;;
30378;SDS011;17168;49.164;9.060;2023-09-30T13:23:07;6.57;;;3.03;;
30378;SDS011;17168;49.164;9.060;2023-09-30T13:25:39;7.43;;;2.75;;
30378;SDS011;17168;49.164;9.060;2023-09-30T13:28:14;8.25;;;2.90;;
30378;SDS011;17168;49.164;9.060;2023-09-30T13:30:47;9.02;;;2.95;;
30378;SDS011;17168;49.164;9.060;2023-09-30T13:33:19;6.22;;;2.95;;
30378;SDS011;17168;49.164;9.060;2023-09-30T13:35:54;7.25;;;3.05;;
30378;SDS011;17168;49.164;9.060;2023-09-30T13:38:27;11.07;;;3.00;;
30378;SDS011;17168;49.164;9.060;2023-09-30T13:41:00;9.13;;;4.30;;
30378;SDS011;17168;49.164;9.060;2023-09-30T13:43:38;5.72;;;3.00;;
30378;SDS011;17168;49.164;9.060;2023-09-30T13:47:10;8.23;;;3.03;;
30378;SDS011;17168;49.164;9.060;2023-09-30T13:49:43;6.55;;;3.55;;
30378;SDS011;17168;49.164;9.060;2023-09-30T13:52:15;7.38;;;3.83;;
30378;SDS011;17168;49.164;9.060;2023-09-30T13:56:58;7.25;;;4.22;;
30378;SDS011;17168;49.164;9.060;2023-09-30T13:59:33;9.43;;;4.03;;
30378;SDS011;17168;49.164;9.060;2023-09-30T14:04:31;7.70;;;3.65;;
30378;SDS011;17168;49.164;9.060;2023-09-30T14:07:04;9.13;;;3.75;;
30378;SDS011;17168;49.164;9.060;2023-09-30T14:09:37;7.82;;;4.25;;
30378;SDS011;17168;49.164;9.060;2023-09-30T14:12:49;9.13;;;4.38;;
30378;SDS011;17168;49.164;9.060;2023-09-30T14:15:21;7.53;;;3.72;;
30378;SDS011;17168;49.164;9.060;2023-09-30T14:17:53;8.30;;;4.57;;
30378;SDS011;17168;49.164;9.060;2023-09-30T14:20:27;9.43;;;4.43;;
30378;SDS011;17168;49.164;9.060;2023-09-30T14:23:01;8.60;;;3.90;;
30378;SDS011;17168;49.164;9.060;2023-09-30T14:25:36;7.95;;;4.03;;
30378;SDS011;17168;49.164;9.060;2023-09-30T14:28:11;7.20;;;4.03;;
30378;SDS011;17168;49.164;9.060;2023-09-30T14:30:46;7.75;;;4.53;;
30378;SDS011;17168;49.164;9.060;2023-09-30T14:33:18;7.13;;;3.83;;
30378;SDS011;17168;49.164;9.060;2023-09-30T14:38:29;9.55;;;3.65;;
30378;SDS011;17168;49.164;9.060;2023-09-30T14:41:01;7.88;;;3.60;;
30378;SDS011;17168;49.164;9.060;2023-09-30T14:43:37;7.13;;;2.92;;
30378;SDS011;17168;49.164;9.060;2023-09-30T14:46:09;8.65;;;3.20;;
30378;SDS011;17168;49.164;9.060;2023-09-30T14:48:44;8.63;;;3.13;;
30378;SDS011;17168;49.164;9.060;2023-09-30T14:51:22;7.38;;;3.55;;
30378;SDS011;17168;49.164;9.060;2023-09-30T14:53:57;8.52;;;3.53;;
30378;SDS011;17168;49.164;9.060;2023-09-30T14:56:29;8.40;;;3.20;;
30378;SDS011;17168;49.164;9.060;2023-09-30T14:59:01;6.72;;;3.47;;
30378;SDS011;17168;49.164;9.060;2023-09-30T15:01:35;8.65;;;4.03;;
30378;SDS011;17168;49.164;9.060;2023-09-30T15:04:07;8.68;;;3.33;;
30378;SDS011;17168;49.164;9.060;2023-09-30T15:09:51;6.93;;;3.92;;
30378;SDS011;17168;49.164;9.060;2023-09-30T15:12:26;8.63;;;4.32;;
30378;SDS011;17168;49.164;9.060;2023-09-30T15:14:58;10.00;;;4.30;;
30378;SDS011;17168;49.164;9.060;2023-09-30T15:17:30;9.27;;;4.82;;
30378;SDS011;17168;49.164;9.060;2023-09-30T15:20:07;15.68;;;7.55;;
30378;SDS011;17168;49.164;9.060;2023-09-30T15:23:40;15.77;;;7.00;;
30378;SDS011;17168;49.164;9.060;2023-09-30T15:26:13;13.52;;;5.07;;
30378;SDS011;17168;49.164;9.060;2023-09-30T15:28:47;14.38;;;6.30;;
30378;SDS011;17168;49.164;9.060;2023-09-30T15:31:21;12.85;;;6.05;;
30378;SDS011;17168;49.164;9.060;2023-09-30T15:33:59;18.95;;;7.38;;
30378;SDS011;17168;49.164;9.060;2023-09-30T15:36:31;17.67;;;7.03;;
30378;SDS011;17168;49.164;9.060;2023-09-30T15:39:06;11.07;;;4.78;;
30378;SDS011;17168;49.164;9.060;2023-09-30T15:41:39;12.00;;;5.13;;
30378;SDS011;17168;49.164;9.060;2023-09-30T15:44:11;12.65;;;4.90;;
30378;SDS011;17168;49.164;9.060;2023-09-30T15:46:43;12.85;;;5.07;;
30378;SDS011;17168;49.164;9.060;2023-09-30T15:49:16;8.63;;;4.00;;
30378;SDS011;17168;49.164;9.060;2023-09-30T15:51:48;9.93;;;3.95;;
30378;SDS011;17168;49.164;9.060;2023-09-30T15:54:23;13.13;;;3.92;;